Terminal Aerodrome Forecast
Issued by NWS Twin Cities, MN

Home | Current Version | Previous Version | Text Only | Print | Product List | Glossary Off
Versions: 1 2 3 4 5 6 7 8 9 10 11 12 13 14 15 16 17

072
FTUS43 KMPX 201925 AAA
TAFEAU
TAF AMD
KEAU 201925Z 2019/2118 14010KT 3SM -RA BR SCT015 OVC025
      TEMPO 2019/2022 2SM SHRA BR OVC010
     FM202200 18011KT 3SM -RA BR OVC008
     FM210400 23010KT 5SM BR VCSH SCT008 OVC012
     FM210700 27009KT P6SM SCT020
     FM211000 26003KT 4SM BR FEW007
     FM211400 21004KT P6SM SCT250=

USA.gov is the U.S. government's official web portal to all federal, state and local government web resources and services.